Time;durP1;ratioP1;P1;durP2;ratioP2;P2;SDS_P1;SDS_P2;PMS_P1;PMS_P2;Temp;Humidity;BMP_temperature;BMP_pressure;BME280_temperature;BME280_humidity;BME280_pressure;Samples;Min_cycle;Max_cycle;Signal;HPM_P1;HPM_P2
2021/09/22 00:00:55;;;;;;;1.60;1.17;;;;;;;10.66;59.54;100159.38;5089371;28;41955;-78
2021/09/22 00:03:22;;;;;;;1.73;0.97;;;;;;;10.60;59.72;100154.38;5122205;27;42982;-81
2021/09/22 00:05:51;;;;;;;1.10;1.00;;;;;;;10.23;59.71;100092.34;5104760;28;41028;-83
2021/09/22 00:08:18;;;;;;;1.17;0.90;;;;;;;10.54;59.66;100149.31;5090258;28;39762;-81
2021/09/22 00:10:46;;;;;;;1.77;1.07;;;;;;;10.51;59.77;100144.16;5091992;28;42038;-82
2021/09/22 00:13:14;;;;;;;1.87;1.07;;;;;;;10.48;59.65;100139.84;5091948;28;43197;-82
2021/09/22 00:15:41;;;;;;;1.83;0.80;;;;;;;10.47;59.72;100147.84;5108180;28;41106;-83
2021/09/22 00:18:10;;;;;;;1.10;1.00;;;;;;;10.43;59.69;100147.09;5108386;28;38977;-79
2021/09/22 00:20:44;;;;;;;1.10;0.80;;;;;;;10.33;60.33;100114.84;5091911;28;42601;-80
2021/09/22 00:23:11;;;;;;;1.60;1.10;;;;;;;10.38;60.42;100126.13;5091004;28;41933;-83
2021/09/22 00:25:39;;;;;;;1.07;0.93;;;;;;;10.38;60.57;100128.78;5091608;28;42471;-79
2021/09/22 00:28:06;;;;;;;1.13;0.83;;;;;;;10.27;60.80;100116.88;5091124;28;40852;-79
2021/09/22 00:30:38;;;;;;;1.73;1.07;;;;;;;10.12;60.82;100094.53;5074139;28;40716;-79
2021/09/22 00:33:07;;;;;;;0.57;0.57;;;;;;;10.36;60.66;100135.91;5073854;28;41991;-83
2021/09/22 00:35:38;;;;;;;1.37;1.20;;;;;;;10.37;61.31;100137.66;5091036;28;42359;-82
2021/09/22 00:38:07;;;;;;;1.50;1.20;;;;;;;10.36;61.28;100141.22;5074461;28;39172;-78
2021/09/22 00:40:35;;;;;;;2.00;1.10;;;;;;;10.36;61.27;100146.50;5072819;28;41158;-82
2021/09/22 00:43:02;;;;;;;0.73;0.73;;;;;;;10.35;61.20;100134.19;5074551;28;42123;-82
2021/09/22 00:45:31;;;;;;;1.30;1.03;;;;;;;10.27;61.15;100125.69;5090538;28;42223;-81
2021/09/22 00:47:58;;;;;;;1.10;1.00;;;;;;;10.22;61.36;100111.78;5091808;28;41173;-83
2021/09/22 00:50:34;;;;;;;1.20;1.03;;;;;;;10.27;61.58;100116.88;5074555;28;42064;-83
2021/09/22 00:53:03;;;;;;;1.20;1.10;;;;;;;10.32;61.52;100130.81;5090770;28;42977;-80
2021/09/22 00:55:31;;;;;;;1.77;1.50;;;;;;;10.32;62.49;100125.50;5089405;28;42173;-81
2021/09/22 00:57:59;;;;;;;1.50;1.23;;;;;;;10.22;62.38;100111.78;5073437;28;39830;-84
2021/09/22 01:00:29;;;;;;;2.03;1.10;;;;;;;10.31;62.36;100122.00;5073416;28;40873;-84
2021/09/22 01:02:57;;;;;;;1.37;1.27;;;;;;;10.32;62.23;100138.75;5074439;28;41868;-84
2021/09/22 01:05:27;;;;;;;1.40;1.10;;;;;;;10.31;62.17;100122.00;5089943;28;43373;-84
2021/09/22 01:07:54;;;;;;;1.30;1.10;;;;;;;10.19;62.35;100108.41;5091037;28;40024;-82
2021/09/22 01:10:23;;;;;;;1.57;1.30;;;;;;;10.29;62.27;100118.53;5073533;28;41334;-80
2021/09/22 01:12:51;;;;;;;2.97;1.83;;;;;;;10.21;62.48;100114.50;5088937;28;43147;-81
2021/09/22 01:15:33;;;;;;;1.50;0.97;;;;;;;10.21;62.28;100123.31;5072919;28;42501;-83
2021/09/22 01:18:01;;;;;;;1.67;1.20;;;;;;;10.24;62.26;100127.63;5091940;28;40091;-81
2021/09/22 01:20:32;;;;;;;2.53;1.20;;;;;;;10.20;62.17;100126.88;5072322;28;40741;-81
2021/09/22 01:23:04;;;;;;;1.63;1.00;;;;;;;10.20;62.34;100129.50;5089799;28;42970;-82
2021/09/22 01:25:42;;;;;;;1.30;1.00;;;;;;;10.17;62.21;100119.00;5089300;28;43328;-79
2021/09/22 01:28:14;;;;;;;1.13;0.83;;;;;;;10.15;62.30;100115.56;5090500;28;40266;-85
2021/09/22 01:30:46;;;;;;;1.40;0.97;;;;;;;10.11;62.33;100108.69;5073066;28;41627;-83
2021/09/22 01:33:17;;;;;;;0.97;0.87;;;;;;;10.12;62.17;100104.25;5072436;28;42127;-81
2021/09/22 01:35:55;;;;;;;1.00;0.60;;;;;;;10.09;62.55;100111.41;5073092;28;41584;-81
2021/09/22 01:38:29;;;;;;;0.93;0.83;;;;;;;9.96;62.75;100088.13;5090525;28;40993;-83
2021/09/22 01:41:14;;;;;;;2.87;0.97;;;;;;;10.06;62.74;100105.34;5073256;28;42032;-83
2021/09/22 01:44:01;;;;;;;2.60;0.93;;;;;;;10.01;62.92;100102.06;5071935;28;42115;-80
2021/09/22 01:46:47;;;;;;;1.20;1.10;;;;;;;10.01;63.02;100104.69;5089709;28;41635;-83
2021/09/22 01:49:23;;;;;;;0.93;0.90;;;;;;;9.98;63.15;100095.09;5072840;28;40568;-79
2021/09/22 01:51:57;;;;;;;1.93;1.00;;;;;;;9.96;63.00;100093.41;5070892;28;41700;-79
2021/09/22 01:54:28;;;;;;;1.03;0.87;;;;;;;9.94;62.91;100089.97;5072073;28;42022;-84
2021/09/22 01:56:56;;;;;;;1.10;1.00;;;;;;;9.84;63.20;100072.75;5122889;27;42135;-81
2021/09/22 01:59:26;;;;;;;1.27;1.10;;;;;;;9.82;63.17;100085.16;5073133;28;39229;-80
2021/09/22 02:02:23;;;;;;;0.97;0.93;;;;;;;9.83;63.28;100097.47;5072844;28;40767;-83
2021/09/22 02:05:12;;;;;;;2.07;1.27;;;;;;;9.71;63.32;100083.81;5088685;28;42314;-78
2021/09/22 02:07:45;;;;;;;1.73;1.00;;;;;;;9.81;63.73;100094.03;5090704;28;43271;-84
2021/09/22 02:10:15;;;;;;;0.83;0.83;;;;;;;9.78;63.71;100100.28;5076815;28;40461;-80
2021/09/22 02:12:43;;;;;;;1.07;0.93;;;;;;;9.67;63.89;100074.25;5108055;28;40888;-86
2021/09/22 02:15:11;;;;;;;1.53;1.33;;;;;;;9.73;63.91;100095.19;5071025;28;41999;-83
2021/09/22 02:17:58;;;;;;;1.67;1.10;;;;;;;9.73;64.02;100100.50;5089644;28;41334;-84
2021/09/22 02:20:26;;;;;;;1.33;0.87;;;;;;;9.72;64.08;100098.78;5123246;27;41308;-84
2021/09/22 02:23:11;;;;;;;1.20;0.83;;;;;;;9.71;64.04;100094.41;5072367;28;40935;-82
2021/09/22 02:25:41;;;;;;;2.53;1.10;;;;;;;9.69;64.21;100090.94;5088343;28;42784;-81
2021/09/22 02:28:09;;;;;;;2.03;0.90;;;;;;;9.68;64.33;100098.94;5123168;27;42265;-81
2021/09/22 02:30:40;;;;;;;1.20;0.97;;;;;;;9.66;64.02;100099.00;5071031;28;38759;-85
2021/09/22 02:33:15;;;;;;;1.43;1.33;;;;;;;9.64;64.02;100098.19;5105590;28;41323;-79
2021/09/22 02:35:43;;;;;;;1.57;1.47;;;;;;;9.57;64.10;100090.56;5071435;28;41690;-82
2021/09/22 02:38:23;;;;;;;1.30;0.93;;;;;;;9.48;64.06;100086.50;5071521;28;41134;-80
2021/09/22 02:40:52;;;;;;;1.20;0.77;;;;;;;9.47;64.15;100083.91;5088743;28;41118;-81
2021/09/22 02:43:24;;;;;;;1.30;0.87;;;;;;;9.55;64.15;100101.19;5089405;28;42814;-82
2021/09/22 02:45:52;;;;;;;1.83;1.10;;;;;;;9.51;64.26;100090.81;5072413;28;41770;-85
2021/09/22 02:48:25;;;;;;;1.13;0.90;;;;;;;9.53;64.41;100100.38;5072247;28;41606;-79
2021/09/22 02:50:53;;;;;;;1.73;1.13;;;;;;;9.52;64.60;100098.66;5122288;27;40716;-84
2021/09/22 02:53:21;;;;;;;1.60;0.90;;;;;;;9.52;64.41;100103.94;5088293;28;41389;-83
2021/09/22 02:55:49;;;;;;;1.27;0.90;;;;;;;9.51;64.41;100112.81;5071520;28;41870;-82
2021/09/22 02:58:19;;;;;;;3.77;1.00;;;;;;;9.50;64.68;100111.09;5072281;28;41361;-77
2021/09/22 03:00:50;;;;;;;1.67;1.40;;;;;;;9.30;64.67;100080.09;5088753;28;39966;-83
2021/09/22 03:03:18;;;;;;;1.30;1.00;;;;;;;9.46;64.46;100112.13;5088537;28;42668;-85
2021/09/22 03:05:45;;;;;;;1.13;1.00;;;;;;;9.49;64.61;100119.94;5072599;28;41818;-81
2021/09/22 03:08:13;;;;;;;2.10;1.27;;;;;;;9.10;64.71;100052.72;5088836;28;41379;-81
2021/09/22 03:10:40;;;;;;;1.30;0.97;;;;;;;9.46;64.67;100117.41;5087981;28;40306;-84
2021/09/22 03:13:08;;;;;;;1.37;1.20;;;;;;;9.44;65.10;100121.91;5088723;28;42360;-82
2021/09/22 03:15:37;;;;;;;1.17;1.10;;;;;;;9.44;65.19;100115.75;5088156;28;42633;-83
2021/09/22 03:18:05;;;;;;;1.53;0.97;;;;;;;9.45;65.11;100115.69;5071870;28;42399;-81
2021/09/22 03:20:33;;;;;;;1.07;0.97;;;;;;;9.46;65.08;100117.41;5088210;28;41027;-80
2021/09/22 03:23:00;;;;;;;1.73;1.20;;;;;;;9.43;64.94;100106.94;5087490;28;41585;-83
2021/09/22 03:25:37;;;;;;;2.10;1.07;;;;;;;9.47;64.96;100111.22;5087852;28;43079;-81
2021/09/22 03:28:05;;;;;;;1.23;1.10;;;;;;;9.54;65.12;100128.56;5087574;28;42232;-83
2021/09/22 03:30:33;;;;;;;1.33;1.00;;;;;;;9.53;65.02;100110.97;5068386;28;41097;-84
2021/09/22 03:33:17;;;;;;;1.93;1.13;;;;;;;9.51;65.03;100107.53;5070944;28;40596;-81
2021/09/22 03:35:44;;;;;;;1.27;0.90;;;;;;;9.53;64.88;100116.25;5087281;28;42940;-82
2021/09/22 03:38:14;;;;;;;2.10;1.00;;;;;;;9.44;65.13;100103.38;5071130;28;41228;-81
2021/09/22 03:40:41;;;;;;;1.77;1.17;;;;;;;9.53;65.45;100113.59;5069209;28;40197;-79
2021/09/22 03:43:10;;;;;;;0.80;0.80;;;;;;;9.53;65.72;100116.25;5073137;28;40654;-82
2021/09/22 03:45:37;;;;;;;1.13;1.03;;;;;;;9.49;65.29;100108.50;5074867;28;43030;-80
2021/09/22 03:48:05;;;;;;;1.20;1.10;;;;;;;9.49;65.25;100109.38;5070939;28;42445;-81
2021/09/22 03:50:35;;;;;;;1.20;1.00;;;;;;;9.66;65.26;100122.78;5053976;28;39166;-85
2021/09/22 03:53:08;;;;;;;1.33;1.17;;;;;;;9.71;65.17;100114.69;5072009;28;41701;-82
2021/09/22 03:55:39;;;;;;;1.77;1.17;;;;;;;9.80;65.25;100113.47;5055072;28;41773;-82
2021/09/22 03:58:06;;;;;;;1.77;1.20;;;;;;;9.95;65.25;100123.44;5072482;28;42190;-81
2021/09/22 04:00:34;;;;;;;1.53;1.43;;;;;;;9.93;65.29;100107.63;5054717;28;40393;-80
2021/09/22 04:03:01;;;;;;;1.77;1.13;;;;;;;10.03;65.31;100108.97;5071613;28;40983;-84
2021/09/22 04:05:29;;;;;;;1.77;1.27;;;;;;;10.21;65.37;100120.66;5071768;28;41636;-81
2021/09/22 04:07:58;;;;;;;1.33;1.17;;;;;;;10.15;65.42;100104.97;5072138;28;42553;-80
2021/09/22 04:10:26;;;;;;;2.00;1.17;;;;;;;10.33;65.39;100114.00;5069952;28;40124;-83
2021/09/22 04:12:56;;;;;;;2.03;1.10;;;;;;;10.30;65.40;100101.72;5071722;28;41916;-80
2021/09/22 04:15:28;;;;;;;1.03;0.97;;;;;;;10.50;65.56;100121.25;5103819;28;42912;-84
2021/09/22 04:17:56;;;;;;;1.70;0.93;;;;;;;10.56;65.79;100121.84;5071172;28;42650;-81
2021/09/22 04:20:23;;;;;;;1.70;1.03;;;;;;;10.63;65.77;100123.28;5075337;28;41062;-82
2021/09/22 04:22:51;;;;;;;0.97;0.83;;;;;;;10.67;65.38;100119.59;5090270;28;42834;-81
2021/09/22 04:25:20;;;;;;;1.37;0.80;;;;;;;10.74;65.21;100112.25;5090631;28;43035;-83
2021/09/22 04:28:01;;;;;;;1.20;0.90;;;;;;;10.80;65.42;100114.63;5090410;28;42379;-79
2021/09/22 04:30:48;;;;;;;1.97;1.43;;;;;;;10.83;66.33;100113.63;5090516;28;39298;-84
2021/09/22 04:33:34;;;;;;;1.60;1.30;;;;;;;10.81;66.19;100103.09;5091801;28;41937;-81
2021/09/22 04:36:21;;;;;;;1.90;1.50;;;;;;;10.93;67.16;100107.00;5090623;28;42167;-78
2021/09/22 04:39:09;;;;;;;1.80;1.30;;;;;;;10.86;67.08;100093.16;5091915;28;43285;-83
2021/09/22 04:41:57;;;;;;;1.63;1.33;;;;;;;11.00;66.53;100104.00;5090507;28;39168;-81
2021/09/22 04:44:43;;;;;;;2.10;1.37;;;;;;;11.07;66.57;100109.91;5090566;28;41224;-84
2021/09/22 04:47:29;;;;;;;1.67;1.20;;;;;;;11.10;66.83;100108.00;5091081;28;42073;-84
2021/09/22 04:50:16;;;;;;;1.53;1.27;;;;;;;11.15;66.61;100108.63;5097510;28;41323;-78
2021/09/22 04:53:02;;;;;;;1.73;1.30;;;;;;;11.16;66.61;100098.88;5108421;28;41100;-79
2021/09/22 04:55:49;;;;;;;1.50;1.23;;;;;;;11.25;66.44;100114.38;5107942;28;41059;-78
2021/09/22 04:58:36;;;;;;;1.77;1.23;;;;;;;11.29;66.23;100117.75;5107837;28;41663;-78
2021/09/22 05:01:23;;;;;;;1.50;1.13;;;;;;;11.33;66.39;100119.34;5107746;28;41132;-77
2021/09/22 05:04:09;;;;;;;2.63;1.50;;;;;;;11.37;66.40;100126.25;5096463;28;40249;-82
2021/09/22 05:06:57;;;;;;;1.70;1.37;;;;;;;11.40;66.06;100126.94;5096378;28;40810;-83
2021/09/22 05:09:43;;;;;;;1.60;1.50;;;;;;;11.46;66.01;100123.16;5093016;28;41839;-81
2021/09/22 05:12:29;;;;;;;2.80;1.17;;;;;;;11.50;65.81;100136.19;5090898;28;41282;-82
2021/09/22 05:15:17;;;;;;;1.23;1.13;;;;;;;11.53;65.73;100132.53;5089557;28;40290;-81
2021/09/22 05:18:10;;;;;;;2.50;1.60;;;;;;;11.55;65.80;100132.47;5091238;28;42020;-80
2021/09/22 05:21:13;;;;;;;1.27;1.13;;;;;;;11.37;65.58;100083.81;5047462;28;42935;-84
2021/09/22 05:24:00;;;;;;;1.40;1.13;;;;;;;11.57;65.71;100118.22;5086216;28;42660;-78
2021/09/22 05:26:46;;;;;;;1.33;1.20;;;;;;;11.69;65.40;100130.91;5089726;28;40159;-81
2021/09/22 05:29:32;;;;;;;2.17;1.30;;;;;;;11.74;65.96;100131.56;5090812;28;41548;-80
2021/09/22 05:32:32;;;;;;;1.53;1.20;;;;;;;11.80;65.69;100131.28;5071397;28;41673;-80
2021/09/22 05:35:18;;;;;;;1.00;0.80;;;;;;;11.77;65.71;100120.81;5089514;28;41592;-85
2021/09/22 05:38:05;;;;;;;3.27;1.60;;;;;;;11.91;65.70;100137.88;5090428;28;39542;-81
2021/09/22 05:40:52;;;;;;;1.53;1.20;;;;;;;11.95;65.82;100135.03;5089570;28;42131;-82
2021/09/22 05:43:38;;;;;;;1.97;1.37;;;;;;;11.94;65.34;100130.66;5089966;28;42126;-82
2021/09/22 05:46:45;;;;;;;0.77;0.70;;;;;;;11.95;65.30;100116.44;5042657;28;41484;-81
2021/09/22 05:49:33;;;;;;;1.60;1.00;;;;;;;12.10;65.25;100136.94;5069662;28;40196;-79
2021/09/22 05:52:20;;;;;;;1.30;1.13;;;;;;;12.14;65.13;100140.28;5086964;28;41915;-79
2021/09/22 05:55:14;;;;;;;1.30;1.20;;;;;;;12.18;65.13;100147.19;5087780;28;43148;-79
2021/09/22 05:58:09;;;;;;;2.10;1.20;;;;;;;12.21;65.37;100155.88;5068230;28;42307;-79
2021/09/22 06:01:02;;;;;;;2.00;1.30;;;;;;;12.27;65.09;100146.75;5068562;28;39754;-78
2021/09/22 06:04:05;;;;;;;1.60;1.10;;;;;;;12.31;64.85;100137.69;5050737;28;40714;-82
2021/09/22 06:07:00;;;;;;;1.00;0.90;;;;;;;12.38;64.90;100136.44;5056656;28;43083;-80
2021/09/22 06:09:47;;;;;;;1.50;0.90;;;;;;;12.46;64.63;100136.94;5088237;28;41118;-81
2021/09/22 06:12:42;;;;;;;0.90;0.83;;;;;;;12.55;64.38;100131.16;5088913;28;39834;-79
2021/09/22 06:15:10;;;;;;;1.30;1.00;;;;;;;12.56;64.39;100116.94;5072101;28;40946;-84
2021/09/22 06:17:38;;;;;;;1.60;1.03;;;;;;;12.73;63.97;100126.72;5087879;28;43887;-81
2021/09/22 06:20:10;;;;;;;0.93;0.90;;;;;;;12.70;64.01;100112.72;5087486;28;42405;-77
2021/09/22 06:22:40;;;;;;;1.50;1.20;;;;;;;12.83;63.87;100135.94;5072278;28;39383;-83
2021/09/22 06:25:08;;;;;;;2.10;1.53;;;;;;;12.97;64.10;100140.56;5072471;28;40596;-82
2021/09/22 06:27:36;;;;;;;1.47;1.20;;;;;;;13.04;63.67;100141.94;5087559;28;43045;-81
2021/09/22 06:30:05;;;;;;;2.37;1.30;;;;;;;13.11;63.41;100151.31;5087554;28;42474;-80
2021/09/22 06:32:35;;;;;;;1.67;1.33;;;;;;;13.19;63.35;100150.97;5088525;28;39866;-76
2021/09/22 06:35:35;;;;;;;2.30;1.20;;;;;;;13.28;62.77;100153.13;5076155;28;42829;-78
2021/09/22 06:38:09;;;;;;;1.23;1.10;;;;;;;13.36;62.89;100158.03;5051155;28;43051;-84
2021/09/22 06:40:41;;;;;;;1.27;1.17;;;;;;;13.44;62.40;100154.03;5066545;28;43258;-83
2021/09/22 06:43:08;;;;;;;1.97;1.10;;;;;;;13.52;62.58;100153.63;5067560;28;39902;-84
2021/09/22 06:45:37;;;;;;;2.03;1.33;;;;;;;13.63;62.55;100153.88;5068835;28;42165;-85
2021/09/22 06:48:05;;;;;;;1.70;1.60;;;;;;;13.62;61.97;100145.03;5067842;28;42817;-81
2021/09/22 06:50:33;;;;;;;1.53;1.30;;;;;;;13.66;61.83;100143.09;5068052;28;42182;-84
2021/09/22 06:53:00;;;;;;;2.20;1.50;;;;;;;13.80;62.01;100151.19;5068869;28;40225;-86
2021/09/22 06:55:30;;;;;;;2.80;1.17;;;;;;;13.87;61.57;100149.03;5067783;28;41759;-81
2021/09/22 06:57:58;;;;;;;4.70;2.53;;;;;;;13.87;61.68;100136.56;5070421;28;43091;-84
2021/09/22 07:00:26;;;;;;;4.30;2.73;;;;;;;14.03;61.45;100149.91;5088945;28;43267;-78
2021/09/22 07:02:53;;;;;;;2.87;1.30;;;;;;;14.15;61.31;100145.69;5071152;28;40235;-78
2021/09/22 07:05:21;;;;;;;2.63;1.63;;;;;;;14.24;61.08;100151.34;5089158;28;41741;-84
2021/09/22 07:07:49;;;;;;;1.63;1.27;;;;;;;14.36;60.59;100155.09;5071311;28;42919;-82
2021/09/22 07:10:18;;;;;;;2.20;1.90;;;;;;;14.49;60.48;100156.16;5087940;28;42173;-83
2021/09/22 07:12:49;;;;;;;2.07;1.73;;;;;;;14.63;60.28;100153.53;5088331;28;40022;-83
2021/09/22 07:15:16;;;;;;;1.23;0.97;;;;;;;14.90;59.74;100161.72;5071048;28;42011;-82
2021/09/22 07:17:44;;;;;;;1.33;1.23;;;;;;;15.17;59.29;100163.69;5089457;28;43007;-82
2021/09/22 07:20:13;;;;;;;2.67;1.43;;;;;;;15.46;58.69;100176.97;5075187;28;42018;-80
2021/09/22 07:22:41;;;;;;;1.90;1.20;;;;;;;15.70;58.30;100171.94;5074625;28;38971;-81
2021/09/22 07:25:11;;;;;;;1.60;1.10;;;;;;;15.84;58.11;100163.06;5074592;28;41668;-77
2021/09/22 07:27:38;;;;;;;1.13;1.00;;;;;;;16.02;57.71;100175.28;5090377;28;42499;-78
2021/09/22 07:30:13;;;;;;;1.63;1.10;;;;;;;16.22;57.41;100176.66;5074606;28;41547;-78
2021/09/22 07:32:41;;;;;;;2.13;1.30;;;;;;;16.62;56.16;100191.00;5073675;28;40318;-78
2021/09/22 07:35:10;;;;;;;3.00;1.67;;;;;;;17.27;54.71;100184.84;5090900;28;41976;-77
2021/09/22 07:37:38;;;;;;;1.47;1.27;;;;;;;17.90;52.82;100195.56;5090448;28;42844;-82
2021/09/22 07:40:07;;;;;;;3.87;2.20;;;;;;;18.43;51.36;100210.44;5073792;28;42529;-82
2021/09/22 07:42:35;;;;;;;2.00;1.80;;;;;;;19.23;48.99;100219.63;5090964;28;39128;-86
2021/09/22 07:45:04;;;;;;;2.90;1.47;;;;;;;19.75;48.72;100230.88;5093076;28;42913;-82
2021/09/22 07:47:33;;;;;;;7.13;5.57;;;;;;;19.96;48.32;100232.72;5053360;28;41732;-85
2021/09/22 07:50:01;;;;;;;4.30;2.57;;;;;;;19.90;48.37;100232.38;5103902;28;42703;-79
2021/09/22 07:52:28;;;;;;;1.90;1.60;;;;;;;19.77;48.60;100231.63;5069358;28;39830;-81
2021/09/22 07:54:56;;;;;;;1.93;1.57;;;;;;;19.51;48.67;100222.91;5070389;28;41076;-84
2021/09/22 07:57:24;;;;;;;2.30;1.40;;;;;;;19.44;49.12;100222.47;5085598;28;41849;-77
2021/09/22 07:59:52;;;;;;;3.53;1.60;;;;;;;19.34;49.83;100225.03;5074469;28;41134;-80
2021/09/22 08:02:20;;;;;;;1.83;1.63;;;;;;;19.27;49.11;100222.94;5074150;28;39382;-79
2021/09/22 08:04:49;;;;;;;2.57;1.37;;;;;;;19.24;49.54;100215.13;5091255;28;40679;-84
2021/09/22 08:07:18;;;;;;;1.23;1.17;;;;;;;19.47;49.36;100227.63;5072596;28;41853;-81
2021/09/22 08:09:46;;;;;;;1.50;1.23;;;;;;;19.61;48.65;100227.44;5091042;28;42558;-81
2021/09/22 08:12:14;;;;;;;1.67;1.40;;;;;;;19.72;48.67;100240.91;5090543;28;39343;-79
2021/09/22 08:14:42;;;;;;;1.57;1.37;;;;;;;19.94;48.51;100242.75;5091014;28;42821;-77
2021/09/22 08:17:18;;;;;;;1.57;1.10;;;;;;;20.34;47.72;100243.09;5068270;28;43166;-79
2021/09/22 08:19:45;;;;;;;1.30;1.20;;;;;;;20.70;47.04;100244.66;5070136;28;43348;-80
2021/09/22 08:22:15;;;;;;;2.67;1.07;;;;;;;21.03;45.82;100243.69;5070808;28;39970;-78
2021/09/22 08:24:43;;;;;;;1.97;1.50;;;;;;;21.46;45.52;100251.75;5099353;28;40706;-79
2021/09/22 08:27:12;;;;;;;1.83;1.40;;;;;;;22.11;44.30;100247.03;5090230;28;43975;-77
2021/09/22 08:29:42;;;;;;;3.20;1.33;;;;;;;22.78;43.10;100249.09;5089794;28;41607;-79
2021/09/22 08:32:09;;;;;;;3.57;1.47;;;;;;;23.28;41.87;100253.41;5090086;28;40783;-80
2021/09/22 08:34:37;;;;;;;1.97;1.40;;;;;;;23.96;40.71;100262.28;5090341;28;42281;-84
2021/09/22 08:37:05;;;;;;;2.20;1.50;;;;;;;24.58;39.23;100274.31;5090997;28;42568;-79
2021/09/22 08:39:34;;;;;;;2.10;1.60;;;;;;;25.19;38.46;100273.66;5091713;28;43248;-82
2021/09/22 08:42:02;;;;;;;1.90;1.40;;;;;;;25.29;37.74;100285.25;5091509;28;41866;-82
2021/09/22 08:44:30;;;;;;;1.37;1.07;;;;;;;25.15;37.86;100272.25;5073583;28;42157;-83
2021/09/22 08:47:11;;;;;;;2.33;1.33;;;;;;;25.23;37.66;100266.88;5075091;28;42102;-82
2021/09/22 08:49:40;;;;;;;5.33;3.07;;;;;;;25.30;37.42;100270.69;5091209;28;41637;-84
2021/09/22 08:52:09;;;;;;;4.63;3.30;;;;;;;25.57;37.66;100255.31;5090066;28;40115;-85
2021/09/22 08:54:40;;;;;;;3.03;1.60;;;;;;;25.71;37.13;100263.78;5091245;28;41075;-86
2021/09/22 08:57:08;;;;;;;2.93;2.30;;;;;;;25.88;36.78;100264.72;5089016;28;43696;-82
2021/09/22 08:59:36;;;;;;;1.93;1.53;;;;;;;25.93;36.65;100256.13;5073862;28;41139;-83
2021/09/22 09:02:09;;;;;;;1.83;1.70;;;;;;;26.25;36.27;100255.44;5089595;28;39144;-80
2021/09/22 09:04:38;;;;;;;3.00;1.90;;;;;;;25.97;36.63;100236.63;5072712;28;41183;-78
2021/09/22 09:07:11;;;;;;;2.70;2.13;;;;;;;25.71;37.24;100246.66;5071831;28;42139;-83
2021/09/22 09:09:42;;;;;;;3.10;1.77;;;;;;;25.49;38.00;100249.81;5073444;28;41768;-85
2021/09/22 09:12:18;;;;;;;3.97;2.37;;;;;;;25.16;37.92;100241.41;5089398;28;39862;-79
2021/09/22 09:14:52;;;;;;;3.40;2.20;;;;;;;24.84;38.46;100239.22;5089509;28;41748;-80
2021/09/22 09:17:37;;;;;;;2.23;1.93;;;;;;;24.66;39.13;100239.19;5071563;28;41857;-78
2021/09/22 09:20:27;;;;;;;3.37;1.90;;;;;;;24.57;39.77;100228.41;5071984;28;41413;-83
2021/09/22 09:23:06;;;;;;;2.43;1.90;;;;;;;24.49;39.44;100231.84;5083542;28;38845;-84
2021/09/22 09:25:44;;;;;;;3.17;2.27;;;;;;;24.42;39.58;100230.78;5068169;28;42179;-78
2021/09/22 09:28:34;;;;;;;1.60;1.40;;;;;;;24.33;39.74;100232.53;5086450;28;43201;-80
2021/09/22 09:31:05;;;;;;;1.70;1.60;;;;;;;24.22;40.01;100223.72;5069817;28;42478;-85
2021/09/22 09:33:40;;;;;;;1.67;1.30;;;;;;;24.23;40.22;100234.41;5089381;28;40978;-84
2021/09/22 09:36:31;;;;;;;1.43;1.33;;;;;;;24.22;40.52;100229.16;5085324;28;40754;-80
2021/09/22 09:39:04;;;;;;;1.33;1.23;;;;;;;24.16;40.33;100227.00;5064786;28;44242;-77
2021/09/22 09:41:37;;;;;;;2.60;1.50;;;;;;;24.14;40.41;100220.91;5057954;28;42040;-80
2021/09/22 09:44:22;;;;;;;2.83;1.87;;;;;;;24.16;40.68;100218.91;5088632;28;40216;-78
2021/09/22 09:46:51;;;;;;;2.60;1.73;;;;;;;24.23;40.57;100226.28;5089379;28;41902;-80
2021/09/22 09:49:22;;;;;;;2.10;1.60;;;;;;;24.30;40.14;100219.28;5088738;28;41962;-78
2021/09/22 09:52:01;;;;;;;3.13;2.20;;;;;;;24.44;39.68;100217.94;5107934;27;42278;-83
2021/09/22 09:54:50;;;;;;;3.20;2.00;;;;;;;24.43;39.57;100220.78;5069239;28;39995;-79
2021/09/22 09:57:21;;;;;;;1.43;1.30;;;;;;;24.40;39.95;100221.09;5099371;28;42609;-79
2021/09/22 09:59:51;;;;;;;1.73;1.63;;;;;;;24.47;39.69;100223.06;5069296;28;43060;-79
2021/09/22 10:02:25;;;;;;;2.30;1.70;;;;;;;24.48;39.86;100211.19;5082070;28;41607;-80
2021/09/22 10:04:53;;;;;;;2.50;2.00;;;;;;;24.50;39.94;100195.66;5088639;28;41023;-80
2021/09/22 10:07:21;;;;;;;1.73;1.50;;;;;;;24.74;39.81;100211.31;5122291;27;42806;-80
2021/09/22 10:09:50;;;;;;;2.43;1.27;;;;;;;24.88;39.70;100204.50;5088533;28;42909;-81
2021/09/22 10:12:20;;;;;;;2.23;1.87;;;;;;;25.05;39.51;100203.69;5087828;28;43298;-80
2021/09/22 10:14:49;;;;;;;1.43;1.30;;;;;;;25.02;39.20;100206.72;5089191;28;40373;-80
2021/09/22 10:17:17;;;;;;;2.97;1.50;;;;;;;24.69;39.19;100179.28;5088538;28;42520;-80
2021/09/22 10:19:45;;;;;;;2.20;1.00;;;;;;;24.67;39.33;100202.97;5087294;28;42781;-79
2021/09/22 10:22:14;;;;;;;2.23;1.70;;;;;;;24.59;39.85;100205.59;5070704;28;42514;-80
2021/09/22 10:24:58;;;;;;;2.03;1.30;;;;;;;24.58;40.15;100205.75;5106222;28;20571;-79
2021/09/22 10:27:41;;;;;;;1.67;1.23;;;;;;;24.74;39.70;100188.78;5170028;27;1268586;-80
2021/09/22 10:30:36;;;;;;;1.60;1.50;;;;;;;24.97;39.74;100203.63;5147788;27;20596;-82
2021/09/22 10:33:28;;;;;;;1.60;1.17;;;;;;;25.23;39.01;100144.00;5147688;27;20561;-80
2021/09/22 10:36:11;;;;;;;1.47;1.37;;;;;;;25.89;37.96;100203.16;5105504;28;20584;-81
2021/09/22 10:38:54;;;;;;;2.13;1.73;;;;;;;26.04;37.93;100202.38;5106108;28;21059;-83
2021/09/22 10:41:43;;;;;;;2.27;1.53;;;;;;;26.20;37.22;100206.19;5106530;28;20572;-79
2021/09/22 10:44:35;;;;;;;1.93;1.73;;;;;;;26.19;37.01;100204.50;5105969;28;20564;-80
2021/09/22 10:47:26;;;;;;;1.40;1.30;;;;;;;26.23;37.26;100193.13;5085781;28;20608;-81
2021/09/22 10:50:09;;;;;;;1.43;1.10;;;;;;;26.09;36.49;100177.44;5105646;28;21071;-81
2021/09/22 10:52:53;;;;;;;1.27;1.17;;;;;;;26.33;36.10;100198.47;5146694;27;20568;-80
2021/09/22 10:55:55;;;;;;;1.10;1.00;;;;;;;26.45;36.13;100189.00;5178955;27;1589084;-84
2021/09/22 10:58:48;;;;;;;1.23;1.00;;;;;;;27.03;35.81;100190.84;5118930;27;20576;-84
2021/09/22 11:01:51;;;;;;;1.20;1.10;;;;;;;27.45;34.43;100199.66;5105807;28;20560;-83
2021/09/22 11:07:58;;;;;;;6.30;3.23;;;;;;;27.57;34.29;100199.38;5106127;28;20568;-79
2021/09/22 11:10:45;;;;;;;2.23;1.80;;;;;;;28.22;33.53;100202.75;5105711;28;20930;-84
2021/09/22 11:13:39;;;;;;;1.50;1.40;;;;;;;28.73;32.85;100193.13;5119234;27;20570;-79
2021/09/22 11:16:23;;;;;;;1.30;1.20;;;;;;;29.34;32.39;100179.56;5167712;27;21322;-83
2021/09/22 11:19:11;;;;;;;1.20;1.10;;;;;;;29.17;32.07;100196.09;5086626;28;20570;-83
2021/09/22 11:21:54;;;;;;;1.13;1.10;;;;;;;28.79;32.47;100191.59;5121439;27;20544;-80
2021/09/22 11:24:36;;;;;;;0.90;0.90;;;;;;;29.35;31.25;100198.47;5185749;27;1516231;-80
2021/09/22 11:27:19;;;;;;;2.37;1.53;;;;;;;29.20;31.07;100194.84;5173229;27;20559;-79
2021/09/22 11:30:06;;;;;;;1.40;1.30;;;;;;;28.74;31.64;100191.25;5105830;28;20568;-78
2021/09/22 11:32:48;;;;;;;1.97;0.97;;;;;;;28.36;33.05;100179.38;5106454;28;20574;-79
2021/09/22 11:35:31;;;;;;;1.37;0.90;;;;;;;28.45;32.94;100181.03;5106287;28;20568;-81
2021/09/22 11:38:15;;;;;;;2.20;1.10;;;;;;;28.87;32.33;100184.22;5126939;27;20580;-82
2021/09/22 11:40:57;;;;;;;0.90;0.67;;;;;;;28.81;32.28;100186.78;5105235;28;20560;-86
2021/09/22 11:43:40;;;;;;;1.23;1.13;;;;;;;28.66;32.43;100175.81;5106182;28;21018;-85
2021/09/22 11:46:27;;;;;;;1.57;0.90;;;;;;;30.13;30.62;100180.84;5105724;28;20568;-84
2021/09/22 11:49:10;;;;;;;1.23;0.97;;;;;;;30.20;29.85;100182.59;5105612;28;20564;-80
2021/09/22 11:52:12;;;;;;;1.97;1.40;;;;;;;30.70;30.18;100173.56;5106248;28;20566;-80
2021/09/22 11:55:06;;;;;;;1.03;0.97;;;;;;;32.12;28.77;100177.94;5106200;28;20971;-81
2021/09/22 11:57:50;;;;;;;1.20;1.10;;;;;;;31.64;29.19;100168.81;5106406;28;20559;-79
2021/09/22 12:00:32;;;;;;;1.40;1.30;;;;;;;31.30;28.59;100174.16;5106070;28;21036;-79
2021/09/22 12:03:17;;;;;;;1.00;1.00;;;;;;;33.12;27.90;100166.25;5106241;28;20572;-82
2021/09/22 12:06:08;;;;;;;1.20;1.10;;;;;;;34.63;26.22;100157.91;5105829;28;20758;-82
2021/09/22 12:08:53;;;;;;;1.30;1.20;;;;;;;35.91;24.38;100173.91;5167802;27;21028;-80